createdAt,value
2023-02-27T00:01:29.305Z,71.67
2023-02-27T00:04:22.315Z,71.22
2023-02-27T00:07:15.368Z,71.26
2023-02-27T00:10:10.582Z,70.47
2023-02-27T00:13:05.285Z,69.88
2023-02-27T00:15:58.069Z,69.23
2023-02-27T00:18:50.902Z,69.34
2023-02-27T00:21:44.694Z,69.68
2023-02-27T00:24:37.523Z,70.18
2023-02-27T00:27:30.261Z,69.33
2023-02-27T00:30:23.720Z,68.33
2023-02-27T00:33:16.603Z,68.91
2023-02-27T00:36:10.121Z,68.98
2023-02-27T00:39:02.843Z,69.42
2023-02-27T00:41:49.656Z,69.70
2023-02-27T00:44:42.473Z,69.62
2023-02-27T00:47:36.762Z,69.67
2023-02-27T00:50:29.551Z,69.95
2023-02-27T00:53:22.436Z,70.17
2023-02-27T00:56:15.219Z,70.24
2023-02-27T00:59:09.570Z,70.53
2023-02-27T01:02:02.390Z,71.02
2023-02-27T01:04:55.129Z,71.02
2023-02-27T01:07:47.840Z,71.32
2023-02-27T01:10:40.694Z,71.56
2023-02-27T01:13:33.755Z,71.76
2023-02-27T01:16:26.727Z,71.75
2023-02-27T01:19:19.843Z,71.75
2023-02-27T01:22:12.675Z,71.59
2023-02-27T01:25:05.592Z,71.82
2023-02-27T01:27:48.538Z,71.68
2023-02-27T01:30:44.124Z,71.44
2023-02-27T01:33:30.194Z,71.26
2023-02-27T01:36:24.250Z,71.63
2023-02-27T01:39:16.969Z,71.15
2023-02-27T01:42:23.375Z,71.22
2023-02-27T01:45:34.487Z,71.08
2023-02-27T01:48:46.545Z,70.57
2023-02-27T01:51:44.528Z,70.23
2023-02-27T01:54:41.907Z,69.83
2023-02-27T01:57:20.174Z,69.82
2023-02-27T02:00:08.576Z,69.78
2023-02-27T02:03:21.388Z,70.02
2023-02-27T02:06:15.143Z,70.12
2023-02-27T02:09:03.789Z,68.68
2023-02-27T02:11:58.411Z,68.20
2023-02-27T02:14:52.293Z,68.12
2023-02-27T02:17:54.976Z,67.52
2023-02-27T02:21:38.816Z,66.99
2023-02-27T02:25:00.040Z,66.82
2023-02-27T02:28:26.268Z,67.56
2023-02-27T02:31:51.269Z,66.71
2023-02-27T02:35:09.600Z,66.52
2023-02-27T02:38:46.467Z,67.12
2023-02-27T02:41:58.320Z,67.24
2023-02-27T02:44:59.190Z,67.42
2023-02-27T02:48:05.028Z,67.28
2023-02-27T02:50:42.919Z,67.40
2023-02-27T02:53:38.977Z,67.37
2023-02-27T02:56:37.007Z,66.78
2023-02-27T02:59:30.860Z,67.00
2023-02-27T03:02:29.778Z,67.07
2023-02-27T03:05:27.669Z,66.61
2023-02-27T03:08:28.192Z,67.15
2023-02-27T03:11:22.034Z,67.17
2023-02-27T03:14:20.310Z,67.18
2023-02-27T03:17:22.256Z,67.21
2023-02-27T03:20:21.891Z,67.68
2023-02-27T03:23:17.313Z,67.75
2023-02-27T03:26:11.741Z,67.85
2023-02-27T03:29:08.262Z,68.12
2023-02-27T03:32:07.459Z,68.24
2023-02-27T03:35:02.148Z,67.90
2023-02-27T03:38:02.908Z,67.90
2023-02-27T03:41:26.070Z,67.77
2023-02-27T03:44:30.081Z,67.89
2023-02-27T03:47:23.540Z,67.94
2023-02-27T03:50:18.092Z,68.12
2023-02-27T03:53:19.980Z,68.04
2023-02-27T03:56:16.293Z,68.16
2023-02-27T03:59:10.218Z,68.20
2023-02-27T04:02:04.552Z,68.33
2023-02-27T04:04:57.499Z,68.33
2023-02-27T04:08:18.186Z,68.22
2023-02-27T04:11:35.962Z,68.02
2023-02-27T04:14:52.108Z,68.01
2023-02-27T04:17:45.865Z,68.50
2023-02-27T04:20:46.086Z,68.52
2023-02-27T04:23:25.551Z,68.78
2023-02-27T04:26:29.618Z,68.71
2023-02-27T04:29:32.544Z,69.18
2023-02-27T04:32:32.900Z,69.15
2023-02-27T04:35:32.976Z,69.29
2023-02-27T04:38:32.363Z,69.24
2023-02-27T04:41:30.487Z,69.46
2023-02-27T04:44:17.778Z,69.61
2023-02-27T04:47:14.206Z,69.92
2023-02-27T04:50:15.886Z,70.04
2023-02-27T04:53:13.392Z,69.97
2023-02-27T04:56:10.393Z,69.90
2023-02-27T04:59:07.355Z,69.75
2023-02-27T05:02:03.934Z,69.46
2023-02-27T05:05:01.687Z,69.58
2023-02-27T05:07:58.718Z,69.09
2023-02-27T05:10:58.957Z,69.00
2023-02-27T05:13:50.865Z,69.04
2023-02-27T05:16:48.277Z,69.16
2023-02-27T05:19:44.339Z,69.23
2023-02-27T05:22:47.025Z,69.07
2023-02-27T05:25:47.628Z,69.01
2023-02-27T05:28:48.703Z,66.80
2023-02-27T05:31:49.533Z,66.61
2023-02-27T05:34:34.897Z,67.12
2023-02-27T05:37:33.175Z,67.68
2023-02-27T05:40:32.371Z,67.72
2023-02-27T05:43:31.166Z,67.33
2023-02-27T05:46:27.451Z,66.25
2023-02-27T05:49:25.206Z,66.79
2023-02-27T05:52:22.028Z,65.24
2023-02-27T05:55:17.069Z,65.19
2023-02-27T05:58:17.905Z,64.54
2023-02-27T06:01:12.566Z,65.09
2023-02-27T06:04:05.600Z,64.39
2023-02-27T06:06:59.055Z,63.93
2023-02-27T06:09:53.274Z,63.69
2023-02-27T06:12:32.412Z,63.41
2023-02-27T06:15:24.709Z,63.91
2023-02-27T06:18:22.108Z,64.34
2023-02-27T06:21:15.736Z,63.91
2023-02-27T06:24:10.659Z,63.61
2023-02-27T06:27:03.938Z,63.53
2023-02-27T06:30:01.256Z,63.46
2023-02-27T06:32:54.344Z,63.61
2023-02-27T06:35:50.571Z,64.03
2023-02-27T06:38:37.786Z,63.22
2023-02-27T06:41:30.741Z,63.12
2023-02-27T06:44:24.079Z,62.86
2023-02-27T06:47:17.069Z,63.77
2023-02-27T06:50:03.746Z,62.37
2023-02-27T06:52:56.928Z,61.86
2023-02-27T06:55:50.334Z,62.34
2023-02-27T06:58:44.752Z,62.10
2023-02-27T07:01:37.851Z,61.31
2023-02-27T07:04:31.183Z,61.31
2023-02-27T07:07:34.897Z,61.38
2023-02-27T07:10:29.216Z,60.66
2023-02-27T07:13:22.362Z,61.40
2023-02-27T07:16:15.599Z,60.53
2023-02-27T07:19:08.904Z,60.99
2023-02-27T07:22:00.921Z,60.97
2023-02-27T07:24:53.640Z,60.46
2023-02-27T07:27:49.909Z,60.55
2023-02-27T07:30:41.889Z,59.14
2023-02-27T07:33:34.806Z,58.67
2023-02-27T07:36:20.340Z,58.30
2023-02-27T07:39:15.509Z,58.11
2023-02-27T07:42:08.619Z,58.41
2023-02-27T07:44:55.373Z,58.74
2023-02-27T07:47:50.815Z,59.53
2023-02-27T07:50:43.656Z,58.57
2023-02-27T07:53:39.089Z,58.20
2023-02-27T07:56:32.053Z,57.55
2023-02-27T07:59:25.795Z,57.72
2023-02-27T08:02:13.497Z,57.73
2023-02-27T08:05:08.917Z,57.85
2023-02-27T08:08:01.030Z,58.07
2023-02-27T08:10:58.577Z,57.30
2023-02-27T08:14:01.015Z,57.48
2023-02-27T08:16:54.621Z,56.78
2023-02-27T08:19:41.168Z,55.72
2023-02-27T08:22:38.167Z,55.25
2023-02-27T08:25:31.496Z,55.36
2023-02-27T08:28:26.328Z,56.05
2023-02-27T08:31:19.162Z,56.99
2023-02-27T08:34:14.486Z,56.46
2023-02-27T08:37:07.557Z,54.56
2023-02-27T08:40:02.527Z,55.53
2023-02-27T08:42:53.850Z,55.77
2023-02-27T08:45:49.332Z,55.54
2023-02-27T08:48:44.061Z,53.47
2023-02-27T08:51:38.564Z,53.25
2023-02-27T08:54:31.831Z,53.17
2023-02-27T08:57:26.757Z,52.03
2023-02-27T09:00:21.700Z,51.36
2023-02-27T09:03:16.112Z,51.36
2023-02-27T09:06:09.508Z,51.25
2023-02-27T09:09:04.489Z,50.20
2023-02-27T09:12:00.137Z,50.40
2023-02-27T09:14:53.114Z,50.20
2023-02-27T09:17:35.928Z,50.42
2023-02-27T09:20:21.893Z,51.01
2023-02-27T09:23:06.538Z,51.52
2023-02-27T09:25:59.569Z,51.84
2023-02-27T09:28:55.466Z,50.92
2023-02-27T09:31:48.721Z,51.07
2023-02-27T09:34:43.506Z,51.03
2023-02-27T09:37:36.775Z,52.25
2023-02-27T09:40:29.075Z,52.69
2023-02-27T09:43:25.303Z,52.18
2023-02-27T09:46:21.532Z,52.03
2023-02-27T09:49:18.791Z,51.47
2023-02-27T09:52:04.049Z,50.96
2023-02-27T09:54:57.400Z,50.25
2023-02-27T09:57:53.452Z,50.85
2023-02-27T10:00:55.116Z,50.05
2023-02-27T10:04:20.388Z,50.54
2023-02-27T10:07:20.660Z,51.36
2023-02-27T10:10:28.366Z,50.57
2023-02-27T10:13:38.416Z,51.08
2023-02-27T10:16:33.823Z,51.08
2023-02-27T10:19:34.282Z,51.90
2023-02-27T10:22:30.281Z,50.21
2023-02-27T10:25:31.641Z,50.97
2023-02-27T10:28:27.766Z,50.24
2023-02-27T10:31:27.065Z,49.31
2023-02-27T10:34:21.743Z,49.11
2023-02-27T10:37:19.938Z,49.44
2023-02-27T10:40:20.769Z,49.21
2023-02-27T10:43:07.270Z,49.55
2023-02-27T10:45:40.616Z,48.75
2023-02-27T10:48:26.361Z,48.62
2023-02-27T10:51:31.533Z,49.49
2023-02-27T10:54:26.716Z,50.57
2023-02-27T10:57:30.818Z,50.32
2023-02-27T11:00:33.616Z,49.85
2023-02-27T11:03:30.154Z,49.88
2023-02-27T11:06:27.713Z,49.30
2023-02-27T11:09:25.800Z,48.72
2023-02-27T11:12:21.402Z,48.62
2023-02-27T11:15:29.567Z,49.69
2023-02-27T11:18:30.135Z,49.59
2023-02-27T11:21:26.324Z,48.13
2023-02-27T11:24:07.849Z,47.49
2023-02-27T11:27:06.034Z,47.51
2023-02-27T11:29:59.836Z,47.85
2023-02-27T11:32:56.330Z,47.86
2023-02-27T11:35:57.192Z,47.94
2023-02-27T11:38:56.833Z,48.87
2023-02-27T11:41:50.138Z,49.50
2023-02-27T11:44:53.204Z,49.01
2023-02-27T11:47:52.665Z,48.88
2023-02-27T11:51:11.959Z,48.01
2023-02-27T11:54:15.853Z,47.81
2023-02-27T11:57:22.249Z,47.25
2023-02-27T12:00:22.329Z,46.34
2023-02-27T12:03:04.582Z,46.72
2023-02-27T12:06:01.751Z,46.96
2023-02-27T12:09:01.350Z,47.33
2023-02-27T12:11:43.822Z,46.98
2023-02-27T12:14:50.634Z,48.52
2023-02-27T12:17:47.962Z,49.23
2023-02-27T12:20:47.507Z,48.55
2023-02-27T12:23:39.401Z,48.47
2023-02-27T12:26:37.390Z,48.66
2023-02-27T12:29:41.540Z,47.76
2023-02-27T12:32:42.168Z,47.39
2023-02-27T12:35:37.904Z,47.37
2023-02-27T12:38:30.040Z,48.09
2023-02-27T12:41:44.044Z,48.25
2023-02-27T12:44:59.918Z,48.59
2023-02-27T12:48:03.986Z,48.55
2023-02-27T12:51:06.750Z,48.21
2023-02-27T12:54:20.458Z,47.55
2023-02-27T12:57:33.690Z,47.57
2023-02-27T13:00:30.764Z,46.91
2023-02-27T13:03:29.702Z,47.04
2023-02-27T13:06:30.736Z,47.60
2023-02-27T13:09:49.638Z,46.61
2023-02-27T13:12:48.546Z,46.68
2023-02-27T13:15:48.702Z,46.33
2023-02-27T13:18:45.562Z,46.20
2023-02-27T13:21:46.204Z,47.92
2023-02-27T13:24:41.849Z,47.01
2023-02-27T13:27:40.186Z,46.72
2023-02-27T13:30:37.212Z,46.59
2023-02-27T13:33:36.908Z,47.13
2023-02-27T13:36:28.805Z,47.52
2023-02-27T13:39:43.808Z,47.38
2023-02-27T13:43:02.168Z,48.08
2023-02-27T13:46:00.187Z,48.46
2023-02-27T13:48:53.959Z,47.56
2023-02-27T13:51:53.533Z,47.02
2023-02-27T13:54:45.250Z,48.02
2023-02-27T13:57:34.306Z,48.31
2023-02-27T14:00:29.526Z,48.44
2023-02-27T14:03:26.433Z,48.44
2023-02-27T14:06:19.351Z,47.76
2023-02-27T14:09:15.128Z,47.86
2023-02-27T14:12:30.914Z,48.77
2023-02-27T14:16:00.987Z,48.98
2023-02-27T14:18:59.281Z,49.37
2023-02-27T14:22:02.956Z,48.81
2023-02-27T14:25:06.611Z,50.00
2023-02-27T14:28:02.409Z,49.75
2023-02-27T14:30:58.430Z,48.79
2023-02-27T14:33:55.912Z,48.88
2023-02-27T14:36:51.647Z,49.26
2023-02-27T14:39:44.552Z,49.84
2023-02-27T14:42:52.108Z,50.24
2023-02-27T14:45:50.771Z,49.74
2023-02-27T14:48:42.321Z,49.89
2023-02-27T14:51:31.143Z,50.24
2023-02-27T14:54:26.819Z,50.70
2023-02-27T14:57:22.211Z,51.51
2023-02-27T15:03:24.252Z,51.81
2023-02-27T15:06:21.207Z,52.03
2023-02-27T15:09:25.252Z,52.00
2023-02-27T15:12:22.970Z,52.36
2023-02-27T15:15:23.484Z,52.37
2023-02-27T15:18:18.096Z,51.95
2023-02-27T15:21:18.336Z,51.61
2023-02-27T15:24:27.788Z,52.05
2023-02-27T15:27:26.055Z,53.04
2023-02-27T15:30:24.155Z,53.62
2023-02-27T15:33:18.747Z,53.72
2023-02-27T15:36:32.918Z,53.61
2023-02-27T15:39:27.391Z,53.49
2023-02-27T15:42:22.939Z,53.95
2023-02-27T15:45:22.958Z,54.36
2023-02-27T15:48:18.408Z,55.08
2023-02-27T15:51:13.361Z,55.35
2023-02-27T15:54:07.285Z,55.27
2023-02-27T15:57:00.981Z,55.29
2023-02-27T15:59:56.397Z,55.24
2023-02-27T16:02:46.958Z,55.05
2023-02-27T16:05:43.019Z,55.47
2023-02-27T16:08:37.638Z,55.89
2023-02-27T16:11:18.809Z,55.96
2023-02-27T16:14:45.444Z,56.36
2023-02-27T16:17:38.360Z,56.81
2023-02-27T16:20:39.133Z,57.04
2023-02-27T16:23:32.967Z,57.41
2023-02-27T16:26:36.715Z,57.74
2023-02-27T16:29:43.406Z,57.38
2023-02-27T16:32:31.428Z,57.55
2023-02-27T16:35:26.334Z,57.84
2023-02-27T16:38:19.578Z,57.43
2023-02-27T16:41:25.486Z,57.71
2023-02-27T16:44:18.713Z,57.95
2023-02-27T16:47:12.795Z,58.36
2023-02-27T16:50:10.638Z,58.43
2023-02-27T16:53:03.997Z,58.47
2023-02-27T16:55:56.785Z,58.62
2023-02-27T16:58:49.753Z,58.62
2023-02-27T17:01:42.889Z,58.63
2023-02-27T17:04:36.371Z,58.34
2023-02-27T17:07:30.612Z,58.32
2023-02-27T17:10:25.655Z,58.34
2023-02-27T17:13:08.432Z,58.48
2023-02-27T17:16:02.113Z,58.30
2023-02-27T17:18:40.039Z,58.37
2023-02-27T17:21:31.722Z,58.14
2023-02-27T17:24:16.936Z,58.26
2023-02-27T17:27:02.362Z,58.14
2023-02-27T17:29:56.659Z,58.17
2023-02-27T17:32:49.214Z,58.16
2023-02-27T17:35:42.473Z,58.08
2023-02-27T17:38:37.565Z,57.83
2023-02-27T17:41:31.278Z,57.85
2023-02-27T17:44:24.256Z,57.94
2023-02-27T17:47:11.549Z,58.13
2023-02-27T17:50:04.212Z,58.49
2023-02-27T17:52:59.120Z,58.62
2023-02-27T17:55:52.152Z,58.72
2023-02-27T17:58:47.442Z,58.87
2023-02-27T18:01:34.068Z,59.37
2023-02-27T18:04:19.273Z,59.60
2023-02-27T18:07:12.101Z,59.58
2023-02-27T18:10:05.928Z,59.75
2023-02-27T18:12:58.698Z,59.88
2023-02-27T18:15:53.389Z,60.21
2023-02-27T18:18:46.756Z,60.38
2023-02-27T18:21:32.307Z,60.63
2023-02-27T18:24:19.932Z,60.71
2023-02-27T18:27:13.152Z,60.72
2023-02-27T18:30:10.348Z,60.82
2023-02-27T18:32:58.976Z,60.87
2023-02-27T18:35:53.303Z,61.02
2023-02-27T18:38:46.019Z,61.07
2023-02-27T18:41:39.584Z,61.29
2023-02-27T18:44:32.442Z,61.32
2023-02-27T18:47:30.501Z,61.46
2023-02-27T18:50:06.937Z,61.56
2023-02-27T18:53:00.421Z,61.97
2023-02-27T18:55:47.540Z,62.29
2023-02-27T18:58:34.071Z,62.73
2023-02-27T19:01:31.282Z,63.15
2023-02-27T19:04:25.574Z,63.32
2023-02-27T19:07:17.953Z,63.78
2023-02-27T19:10:01.845Z,64.11
2023-02-27T19:12:55.863Z,64.36
2023-02-27T19:15:48.713Z,64.52
2023-02-27T19:18:41.940Z,64.43
2023-02-27T19:21:17.967Z,64.20
2023-02-27T19:24:13.409Z,63.90
2023-02-27T19:27:07.618Z,63.81
2023-02-27T19:30:01.593Z,64.03
2023-02-27T19:32:54.685Z,64.00
2023-02-27T19:35:43.593Z,63.80
2023-02-27T19:38:36.638Z,63.25
2023-02-27T19:41:24.109Z,63.48
2023-02-27T19:44:18.579Z,63.60
2023-02-27T19:47:11.743Z,64.10
2023-02-27T19:50:04.878Z,63.98
2023-02-27T19:52:59.572Z,63.59
2023-02-27T19:55:46.115Z,63.60
2023-02-27T19:58:33.650Z,63.28
2023-02-27T20:01:31.038Z,63.39
2023-02-27T20:04:23.833Z,63.58
2023-02-27T20:07:19.016Z,63.60
2023-02-27T20:10:13.791Z,63.79
2023-02-27T20:13:08.119Z,64.32
2023-02-27T20:16:03.341Z,64.67
2023-02-27T20:18:51.554Z,64.98
2023-02-27T20:21:46.368Z,65.18
2023-02-27T20:24:40.548Z,65.08
2023-02-27T20:27:34.712Z,65.15
2023-02-27T20:30:28.468Z,65.24
2023-02-27T20:33:21.252Z,65.33
2023-02-27T20:36:16.299Z,65.26
2023-02-27T20:39:10.217Z,65.00
2023-02-27T20:42:04.945Z,65.28
2023-02-27T20:44:57.688Z,65.54
2023-02-27T20:47:51.379Z,65.62
2023-02-27T20:50:44.285Z,65.34
2023-02-27T20:53:27.142Z,65.12
2023-02-27T20:56:24.004Z,65.24
2023-02-27T20:59:18.158Z,65.04
2023-02-27T21:02:12.587Z,65.30
2023-02-27T21:05:07.264Z,65.16
2023-02-27T21:07:54.228Z,64.97
2023-02-27T21:10:51.107Z,65.10
2023-02-27T21:13:47.058Z,65.29
2023-02-27T21:16:43.388Z,65.38
2023-02-27T21:19:36.926Z,65.55
2023-02-27T21:22:31.296Z,65.66
2023-02-27T21:25:24.483Z,65.87
2023-02-27T21:28:19.830Z,66.23
2023-02-27T21:31:14.301Z,66.52
2023-02-27T21:34:10.654Z,67.02
2023-02-27T21:37:06.320Z,67.47
2023-02-27T21:39:56.766Z,67.22
2023-02-27T21:42:49.894Z,67.23
2023-02-27T21:45:47.577Z,67.50
2023-02-27T21:48:39.338Z,67.48
2023-02-27T21:51:40.518Z,67.52
2023-02-27T21:54:33.969Z,67.58
2023-02-27T21:57:26.842Z,67.35
2023-02-27T22:00:23.216Z,67.38
2023-02-27T22:03:16.009Z,67.46
2023-02-27T22:06:09.836Z,67.85
2023-02-27T22:09:05.960Z,67.98
2023-02-27T22:11:52.525Z,68.15
2023-02-27T22:14:49.520Z,68.21
2023-02-27T22:17:42.285Z,68.33
2023-02-27T22:20:37.050Z,68.45
2023-02-27T22:23:29.953Z,68.80
2023-02-27T22:26:25.302Z,68.96
2023-02-27T22:29:18.349Z,69.02
2023-02-27T22:32:11.429Z,69.50
2023-02-27T22:35:04.359Z,69.64
2023-02-27T22:37:57.783Z,69.69
2023-02-27T22:40:43.432Z,70.00
2023-02-27T22:43:40.110Z,70.14
2023-02-27T22:46:33.443Z,70.29
2023-02-27T22:49:28.956Z,70.25
2023-02-27T22:52:21.760Z,70.39
2023-02-27T22:55:18.054Z,70.57
2023-02-27T22:58:10.964Z,70.61
2023-02-27T23:01:08.548Z,70.77
2023-02-27T23:04:03.639Z,71.05
2023-02-27T23:06:57.328Z,71.23
2023-02-27T23:09:50.091Z,71.84
2023-02-27T23:12:44.485Z,72.51
2023-02-27T23:15:39.245Z,73.04
2023-02-27T23:18:33.600Z,73.43
2023-02-27T23:21:29.825Z,73.48
2023-02-27T23:24:24.488Z,73.50
2023-02-27T23:27:25.858Z,73.90
2023-02-27T23:30:16.397Z,74.01
2023-02-27T23:33:09.175Z,74.57
2023-02-27T23:36:03.067Z,74.78
2023-02-27T23:38:49.910Z,74.79
2023-02-27T23:41:42.726Z,74.81
2023-02-27T23:44:35.524Z,74.99
2023-02-27T23:47:45.145Z,75.43
2023-02-27T23:50:40.461Z,75.31
2023-02-27T23:53:33.653Z,75.44
2023-02-27T23:56:27.287Z,75.35
2023-02-27T23:59:20.220Z,75.43
